sensor_id;sensor_type;location;lat;lon;timestamp;P1;durP1;ratioP1;P2;durP2;ratioP2
4355;SDS011;2191;51.482;7.408;2022-08-14T00:01:57;7.60;;;5.97;;
4355;SDS011;2191;51.482;7.408;2022-08-14T00:04:27;7.13;;;6.07;;
4355;SDS011;2191;51.482;7.408;2022-08-14T00:07:07;5.97;;;5.40;;
4355;SDS011;2191;51.482;7.408;2022-08-14T00:09:35;5.93;;;5.53;;
4355;SDS011;2191;51.482;7.408;2022-08-14T00:12:25;6.03;;;5.40;;
4355;SDS011;2191;51.482;7.408;2022-08-14T00:15:07;5.37;;;4.87;;
4355;SDS011;2191;51.482;7.408;2022-08-14T00:17:41;5.80;;;5.30;;
4355;SDS011;2191;51.482;7.408;2022-08-14T00:20:13;5.60;;;5.20;;
4355;SDS011;2191;51.482;7.408;2022-08-14T00:22:49;9.67;;;6.20;;
4355;SDS011;2191;51.482;7.408;2022-08-14T00:25:23;8.43;;;4.77;;
4355;SDS011;2191;51.482;7.408;2022-08-14T00:28:10;6.00;;;5.03;;
4355;SDS011;2191;51.482;7.408;2022-08-14T00:30:44;6.03;;;5.43;;
4355;SDS011;2191;51.482;7.408;2022-08-14T00:33:12;6.30;;;5.80;;
4355;SDS011;2191;51.482;7.408;2022-08-14T00:35:42;6.33;;;5.73;;
4355;SDS011;2191;51.482;7.408;2022-08-14T00:38:30;6.00;;;5.43;;
4355;SDS011;2191;51.482;7.408;2022-08-14T00:41:00;5.87;;;5.37;;
4355;SDS011;2191;51.482;7.408;2022-08-14T00:43:30;6.90;;;6.30;;
4355;SDS011;2191;51.482;7.408;2022-08-14T00:46:00;6.60;;;6.03;;
4355;SDS011;2191;51.482;7.408;2022-08-14T00:48:33;6.87;;;6.27;;
4355;SDS011;2191;51.482;7.408;2022-08-14T00:51:04;6.10;;;5.47;;
4355;SDS011;2191;51.482;7.408;2022-08-14T00:53:34;6.97;;;5.70;;
4355;SDS011;2191;51.482;7.408;2022-08-14T00:56:04;6.77;;;6.23;;
4355;SDS011;2191;51.482;7.408;2022-08-14T00:58:35;6.70;;;6.20;;
4355;SDS011;2191;51.482;7.408;2022-08-14T01:01:10;6.30;;;5.70;;
4355;SDS011;2191;51.482;7.408;2022-08-14T01:03:42;9.43;;;6.90;;
4355;SDS011;2191;51.482;7.408;2022-08-14T01:06:11;6.70;;;6.17;;
4355;SDS011;2191;51.482;7.408;2022-08-14T01:08:44;6.37;;;5.87;;
4355;SDS011;2191;51.482;7.408;2022-08-14T01:11:22;6.90;;;6.27;;
4355;SDS011;2191;51.482;7.408;2022-08-14T01:14:02;6.60;;;6.00;;
4355;SDS011;2191;51.482;7.408;2022-08-14T01:16:51;6.43;;;5.87;;
4355;SDS011;2191;51.482;7.408;2022-08-14T01:19:21;6.33;;;5.70;;
4355;SDS011;2191;51.482;7.408;2022-08-14T01:22:13;7.00;;;6.30;;
4355;SDS011;2191;51.482;7.408;2022-08-14T01:24:44;5.70;;;5.20;;
4355;SDS011;2191;51.482;7.408;2022-08-14T01:27:16;7.70;;;6.03;;
4355;SDS011;2191;51.482;7.408;2022-08-14T01:29:49;12.50;;;6.90;;
4355;SDS011;2191;51.482;7.408;2022-08-14T01:32:29;7.40;;;6.80;;
4355;SDS011;2191;51.482;7.408;2022-08-14T01:35:07;7.10;;;5.43;;
4355;SDS011;2191;51.482;7.408;2022-08-14T01:37:48;6.63;;;6.00;;
4355;SDS011;2191;51.482;7.408;2022-08-14T01:40:22;7.77;;;7.07;;
4355;SDS011;2191;51.482;7.408;2022-08-14T01:43:02;7.00;;;6.30;;
4355;SDS011;2191;51.482;7.408;2022-08-14T01:45:37;6.13;;;5.63;;
4355;SDS011;2191;51.482;7.408;2022-08-14T01:48:06;6.57;;;5.90;;
4355;SDS011;2191;51.482;7.408;2022-08-14T01:50:39;11.53;;;7.53;;
4355;SDS011;2191;51.482;7.408;2022-08-14T01:53:10;7.80;;;6.20;;
4355;SDS011;2191;51.482;7.408;2022-08-14T01:55:39;6.77;;;6.17;;
4355;SDS011;2191;51.482;7.408;2022-08-14T01:58:08;7.60;;;6.87;;
4355;SDS011;2191;51.482;7.408;2022-08-14T02:00:47;7.30;;;6.70;;
4355;SDS011;2191;51.482;7.408;2022-08-14T02:03:20;7.33;;;6.63;;
4355;SDS011;2191;51.482;7.408;2022-08-14T02:05:48;6.67;;;6.07;;
4355;SDS011;2191;51.482;7.408;2022-08-14T02:08:18;9.53;;;6.10;;
4355;SDS011;2191;51.482;7.408;2022-08-14T02:11:00;6.37;;;5.77;;
4355;SDS011;2191;51.482;7.408;2022-08-14T02:13:46;7.00;;;6.40;;
4355;SDS011;2191;51.482;7.408;2022-08-14T02:16:17;7.53;;;6.93;;
4355;SDS011;2191;51.482;7.408;2022-08-14T02:18:47;7.23;;;6.53;;
4355;SDS011;2191;51.482;7.408;2022-08-14T02:21:15;7.67;;;6.37;;
4355;SDS011;2191;51.482;7.408;2022-08-14T02:23:50;7.03;;;6.30;;
4355;SDS011;2191;51.482;7.408;2022-08-14T02:26:20;10.63;;;6.90;;
4355;SDS011;2191;51.482;7.408;2022-08-14T02:28:55;8.23;;;7.30;;
4355;SDS011;2191;51.482;7.408;2022-08-14T02:31:29;13.80;;;6.90;;
4355;SDS011;2191;51.482;7.408;2022-08-14T02:34:08;7.20;;;6.50;;
4355;SDS011;2191;51.482;7.408;2022-08-14T02:36:48;7.27;;;6.53;;
4355;SDS011;2191;51.482;7.408;2022-08-14T02:39:32;8.93;;;7.50;;
4355;SDS011;2191;51.482;7.408;2022-08-14T02:42:03;7.90;;;6.57;;
4355;SDS011;2191;51.482;7.408;2022-08-14T02:44:38;7.73;;;7.03;;
4355;SDS011;2191;51.482;7.408;2022-08-14T02:47:15;7.23;;;6.63;;
4355;SDS011;2191;51.482;7.408;2022-08-14T02:49:47;7.80;;;7.10;;
4355;SDS011;2191;51.482;7.408;2022-08-14T02:52:21;7.53;;;6.77;;
4355;SDS011;2191;51.482;7.408;2022-08-14T02:55:10;10.23;;;7.03;;
4355;SDS011;2191;51.482;7.408;2022-08-14T02:57:45;7.50;;;6.90;;
4355;SDS011;2191;51.482;7.408;2022-08-14T03:00:28;6.77;;;6.13;;
4355;SDS011;2191;51.482;7.408;2022-08-14T03:03:05;9.50;;;7.20;;
4355;SDS011;2191;51.482;7.408;2022-08-14T03:05:34;8.60;;;7.43;;
4355;SDS011;2191;51.482;7.408;2022-08-14T03:08:07;8.50;;;7.70;;
4355;SDS011;2191;51.482;7.408;2022-08-14T03:10:41;8.27;;;7.37;;
4355;SDS011;2191;51.482;7.408;2022-08-14T03:13:16;7.40;;;6.80;;
4355;SDS011;2191;51.482;7.408;2022-08-14T03:15:47;7.93;;;7.23;;
4355;SDS011;2191;51.482;7.408;2022-08-14T03:18:23;7.93;;;7.13;;
4355;SDS011;2191;51.482;7.408;2022-08-14T03:21:04;8.03;;;7.17;;
4355;SDS011;2191;51.482;7.408;2022-08-14T03:23:33;9.30;;;7.60;;
4355;SDS011;2191;51.482;7.408;2022-08-14T03:26:05;7.77;;;6.97;;
4355;SDS011;2191;51.482;7.408;2022-08-14T03:28:45;8.33;;;7.43;;
4355;SDS011;2191;51.482;7.408;2022-08-14T03:31:18;8.37;;;7.57;;
4355;SDS011;2191;51.482;7.408;2022-08-14T03:33:54;8.23;;;7.43;;
4355;SDS011;2191;51.482;7.408;2022-08-14T03:36:26;8.37;;;7.67;;
4355;SDS011;2191;51.482;7.408;2022-08-14T03:39:15;8.43;;;7.60;;
4355;SDS011;2191;51.482;7.408;2022-08-14T03:41:51;8.83;;;7.57;;
4355;SDS011;2191;51.482;7.408;2022-08-14T03:44:21;9.20;;;8.30;;
4355;SDS011;2191;51.482;7.408;2022-08-14T03:47:10;7.60;;;7.00;;
4355;SDS011;2191;51.482;7.408;2022-08-14T03:49:41;10.03;;;8.00;;
4355;SDS011;2191;51.482;7.408;2022-08-14T03:52:15;8.20;;;7.40;;
4355;SDS011;2191;51.482;7.408;2022-08-14T03:55:05;7.77;;;7.03;;
4355;SDS011;2191;51.482;7.408;2022-08-14T03:57:38;9.43;;;7.37;;
4355;SDS011;2191;51.482;7.408;2022-08-14T04:00:09;8.80;;;7.60;;
4355;SDS011;2191;51.482;7.408;2022-08-14T04:02:58;8.57;;;7.80;;
4355;SDS011;2191;51.482;7.408;2022-08-14T04:05:27;12.00;;;7.10;;
4355;SDS011;2191;51.482;7.408;2022-08-14T04:08:08;8.07;;;7.37;;
4355;SDS011;2191;51.482;7.408;2022-08-14T04:10:56;9.93;;;8.93;;
4355;SDS011;2191;51.482;7.408;2022-08-14T04:13:28;10.40;;;7.60;;
4355;SDS011;2191;51.482;7.408;2022-08-14T04:15:59;8.27;;;7.40;;
4355;SDS011;2191;51.482;7.408;2022-08-14T04:18:30;11.60;;;8.87;;
4355;SDS011;2191;51.482;7.408;2022-08-14T04:21:00;8.03;;;7.30;;
4355;SDS011;2191;51.482;7.408;2022-08-14T04:23:29;8.20;;;7.47;;
4355;SDS011;2191;51.482;7.408;2022-08-14T04:26:00;12.63;;;8.47;;
4355;SDS011;2191;51.482;7.408;2022-08-14T04:28:30;9.37;;;8.47;;
4355;SDS011;2191;51.482;7.408;2022-08-14T04:31:19;8.80;;;8.00;;
4355;SDS011;2191;51.482;7.408;2022-08-14T04:34:07;10.40;;;8.60;;
4355;SDS011;2191;51.482;7.408;2022-08-14T04:36:49;9.43;;;8.60;;
4355;SDS011;2191;51.482;7.408;2022-08-14T04:39:36;9.90;;;9.00;;
4355;SDS011;2191;51.482;7.408;2022-08-14T04:42:22;9.07;;;8.30;;
4355;SDS011;2191;51.482;7.408;2022-08-14T04:45:20;9.33;;;8.30;;
4355;SDS011;2191;51.482;7.408;2022-08-14T04:47:49;8.87;;;8.07;;
4355;SDS011;2191;51.482;7.408;2022-08-14T04:50:36;10.63;;;8.93;;
4355;SDS011;2191;51.482;7.408;2022-08-14T04:53:11;10.00;;;8.93;;
4355;SDS011;2191;51.482;7.408;2022-08-14T04:55:41;11.50;;;8.70;;
4355;SDS011;2191;51.482;7.408;2022-08-14T04:58:17;10.83;;;9.43;;
4355;SDS011;2191;51.482;7.408;2022-08-14T05:01:01;10.43;;;8.50;;
4355;SDS011;2191;51.482;7.408;2022-08-14T05:03:38;10.50;;;8.77;;
4355;SDS011;2191;51.482;7.408;2022-08-14T05:06:07;10.90;;;9.20;;
4355;SDS011;2191;51.482;7.408;2022-08-14T05:08:56;12.27;;;8.93;;
4355;SDS011;2191;51.482;7.408;2022-08-14T05:11:25;9.50;;;8.57;;
4355;SDS011;2191;51.482;7.408;2022-08-14T05:14:01;10.90;;;8.57;;
4355;SDS011;2191;51.482;7.408;2022-08-14T05:16:51;10.00;;;8.93;;
4355;SDS011;2191;51.482;7.408;2022-08-14T05:19:19;13.13;;;9.73;;
4355;SDS011;2191;51.482;7.408;2022-08-14T05:21:55;10.87;;;9.90;;
4355;SDS011;2191;51.482;7.408;2022-08-14T05:24:45;12.20;;;8.23;;
4355;SDS011;2191;51.482;7.408;2022-08-14T05:27:16;12.47;;;9.73;;
4355;SDS011;2191;51.482;7.408;2022-08-14T05:29:49;9.53;;;8.63;;
4355;SDS011;2191;51.482;7.408;2022-08-14T05:32:19;10.63;;;8.33;;
4355;SDS011;2191;51.482;7.408;2022-08-14T05:34:48;11.27;;;9.07;;
4355;SDS011;2191;51.482;7.408;2022-08-14T05:37:16;12.33;;;9.10;;
4355;SDS011;2191;51.482;7.408;2022-08-14T05:39:45;9.07;;;8.17;;
4355;SDS011;2191;51.482;7.408;2022-08-14T05:42:13;10.63;;;9.63;;
4355;SDS011;2191;51.482;7.408;2022-08-14T05:44:52;11.00;;;9.70;;
4355;SDS011;2191;51.482;7.408;2022-08-14T05:47:22;10.33;;;8.70;;
4355;SDS011;2191;51.482;7.408;2022-08-14T05:50:05;9.93;;;9.00;;
4355;SDS011;2191;51.482;7.408;2022-08-14T05:52:44;10.37;;;9.33;;
4355;SDS011;2191;51.482;7.408;2022-08-14T05:55:14;9.60;;;8.80;;
4355;SDS011;2191;51.482;7.408;2022-08-14T05:57:49;11.10;;;9.20;;
4355;SDS011;2191;51.482;7.408;2022-08-14T06:00:20;10.97;;;9.87;;
4355;SDS011;2191;51.482;7.408;2022-08-14T06:02:59;11.33;;;10.17;;
4355;SDS011;2191;51.482;7.408;2022-08-14T06:05:32;9.30;;;8.40;;
4355;SDS011;2191;51.482;7.408;2022-08-14T06:08:04;10.90;;;9.67;;
4355;SDS011;2191;51.482;7.408;2022-08-14T06:10:47;10.30;;;9.30;;
4355;SDS011;2191;51.482;7.408;2022-08-14T06:13:16;10.63;;;9.63;;
4355;SDS011;2191;51.482;7.408;2022-08-14T06:15:44;10.60;;;9.60;;
4355;SDS011;2191;51.482;7.408;2022-08-14T06:18:15;10.30;;;9.30;;
4355;SDS011;2191;51.482;7.408;2022-08-14T06:20:44;9.77;;;8.97;;
4355;SDS011;2191;51.482;7.408;2022-08-14T06:23:12;11.07;;;10.00;;
4355;SDS011;2191;51.482;7.408;2022-08-14T06:25:45;10.47;;;9.50;;
4355;SDS011;2191;51.482;7.408;2022-08-14T06:28:19;10.63;;;9.00;;
4355;SDS011;2191;51.482;7.408;2022-08-14T06:30:53;13.03;;;10.33;;
4355;SDS011;2191;51.482;7.408;2022-08-14T06:33:26;10.70;;;9.57;;
4355;SDS011;2191;51.482;7.408;2022-08-14T06:36:16;9.53;;;8.63;;
4355;SDS011;2191;51.482;7.408;2022-08-14T06:38:45;10.77;;;9.77;;
4355;SDS011;2191;51.482;7.408;2022-08-14T06:41:15;10.67;;;9.60;;
4355;SDS011;2191;51.482;7.408;2022-08-14T06:44:03;11.67;;;9.63;;
4355;SDS011;2191;51.482;7.408;2022-08-14T06:46:35;9.30;;;8.50;;
4355;SDS011;2191;51.482;7.408;2022-08-14T06:49:06;9.50;;;8.70;;
4355;SDS011;2191;51.482;7.408;2022-08-14T06:51:34;12.53;;;9.83;;
4355;SDS011;2191;51.482;7.408;2022-08-14T06:54:10;10.17;;;9.30;;
4355;SDS011;2191;51.482;7.408;2022-08-14T06:56:38;12.60;;;9.50;;
4355;SDS011;2191;51.482;7.408;2022-08-14T06:59:09;10.50;;;9.50;;
4355;SDS011;2191;51.482;7.408;2022-08-14T07:01:46;9.50;;;8.70;;
4355;SDS011;2191;51.482;7.408;2022-08-14T07:04:42;9.73;;;8.83;;
4355;SDS011;2191;51.482;7.408;2022-08-14T07:07:35;11.73;;;9.10;;
4355;SDS011;2191;51.482;7.408;2022-08-14T07:10:04;10.10;;;9.13;;
4355;SDS011;2191;51.482;7.408;2022-08-14T07:12:42;9.20;;;8.30;;
4355;SDS011;2191;51.482;7.408;2022-08-14T07:15:27;9.67;;;8.87;;
4355;SDS011;2191;51.482;7.408;2022-08-14T07:17:59;13.63;;;9.20;;
4355;SDS011;2191;51.482;7.408;2022-08-14T07:20:30;9.00;;;8.20;;
4355;SDS011;2191;51.482;7.408;2022-08-14T07:23:01;9.10;;;8.30;;
4355;SDS011;2191;51.482;7.408;2022-08-14T07:25:37;9.20;;;8.30;;
4355;SDS011;2191;51.482;7.408;2022-08-14T07:28:09;9.20;;;8.40;;
4355;SDS011;2191;51.482;7.408;2022-08-14T07:30:46;12.07;;;8.87;;
4355;SDS011;2191;51.482;7.408;2022-08-14T07:33:17;9.87;;;8.97;;
4355;SDS011;2191;51.482;7.408;2022-08-14T07:35:56;10.00;;;8.37;;
4355;SDS011;2191;51.482;7.408;2022-08-14T07:38:26;8.77;;;7.90;;
4355;SDS011;2191;51.482;7.408;2022-08-14T07:41:03;9.53;;;8.73;;
4355;SDS011;2191;51.482;7.408;2022-08-14T07:43:42;9.23;;;8.47;;
4355;SDS011;2191;51.482;7.408;2022-08-14T07:46:22;7.70;;;7.10;;
4355;SDS011;2191;51.482;7.408;2022-08-14T07:48:56;9.40;;;8.50;;
4355;SDS011;2191;51.482;7.408;2022-08-14T07:51:29;9.20;;;8.40;;
4355;SDS011;2191;51.482;7.408;2022-08-14T07:54:03;9.20;;;8.30;;
4355;SDS011;2191;51.482;7.408;2022-08-14T07:56:36;9.50;;;8.70;;
4355;SDS011;2191;51.482;7.408;2022-08-14T07:59:13;8.73;;;7.70;;
4355;SDS011;2191;51.482;7.408;2022-08-14T08:01:43;8.27;;;7.47;;
4355;SDS011;2191;51.482;7.408;2022-08-14T08:04:17;10.00;;;9.00;;
4355;SDS011;2191;51.482;7.408;2022-08-14T08:06:54;11.07;;;7.73;;
4355;SDS011;2191;51.482;7.408;2022-08-14T08:09:23;9.43;;;7.80;;
4355;SDS011;2191;51.482;7.408;2022-08-14T08:11:58;9.03;;;8.23;;
4355;SDS011;2191;51.482;7.408;2022-08-14T08:14:30;9.10;;;8.40;;
4355;SDS011;2191;51.482;7.408;2022-08-14T08:17:21;10.13;;;8.03;;
4355;SDS011;2191;51.482;7.408;2022-08-14T08:19:49;8.90;;;8.10;;
4355;SDS011;2191;51.482;7.408;2022-08-14T08:22:19;9.57;;;8.67;;
4355;SDS011;2191;51.482;7.408;2022-08-14T08:24:52;10.47;;;8.00;;
4355;SDS011;2191;51.482;7.408;2022-08-14T08:27:23;8.77;;;7.87;;
4355;SDS011;2191;51.482;7.408;2022-08-14T08:29:51;9.03;;;8.30;;
4355;SDS011;2191;51.482;7.408;2022-08-14T08:32:37;9.67;;;8.77;;
4355;SDS011;2191;51.482;7.408;2022-08-14T08:35:09;9.67;;;8.20;;
4355;SDS011;2191;51.482;7.408;2022-08-14T08:37:45;8.77;;;7.97;;
4355;SDS011;2191;51.482;7.408;2022-08-14T08:40:22;8.57;;;7.70;;
4355;SDS011;2191;51.482;7.408;2022-08-14T08:42:57;9.80;;;9.00;;
4355;SDS011;2191;51.482;7.408;2022-08-14T08:45:26;8.83;;;7.83;;
4355;SDS011;2191;51.482;7.408;2022-08-14T08:47:54;8.30;;;7.50;;
4355;SDS011;2191;51.482;7.408;2022-08-14T08:50:23;9.03;;;8.17;;
4355;SDS011;2191;51.482;7.408;2022-08-14T08:52:57;9.13;;;7.67;;
4355;SDS011;2191;51.482;7.408;2022-08-14T08:55:29;8.77;;;7.90;;
4355;SDS011;2191;51.482;7.408;2022-08-14T08:58:00;8.07;;;7.37;;
4355;SDS011;2191;51.482;7.408;2022-08-14T09:00:38;8.80;;;7.93;;
4355;SDS011;2191;51.482;7.408;2022-08-14T09:03:08;8.73;;;7.83;;
4355;SDS011;2191;51.482;7.408;2022-08-14T09:05:48;8.00;;;7.40;;
4355;SDS011;2191;51.482;7.408;2022-08-14T09:08:22;7.83;;;7.13;;
4355;SDS011;2191;51.482;7.408;2022-08-14T09:10:58;10.20;;;9.40;;
4355;SDS011;2191;51.482;7.408;2022-08-14T09:13:27;9.37;;;7.87;;
4355;SDS011;2191;51.482;7.408;2022-08-14T09:15:58;7.47;;;6.77;;
4355;SDS011;2191;51.482;7.408;2022-08-14T09:18:44;8.27;;;7.50;;
4355;SDS011;2191;51.482;7.408;2022-08-14T09:21:12;7.87;;;7.27;;
4355;SDS011;2191;51.482;7.408;2022-08-14T09:23:43;8.23;;;7.43;;
4355;SDS011;2191;51.482;7.408;2022-08-14T09:26:32;9.90;;;7.50;;
4355;SDS011;2191;51.482;7.408;2022-08-14T09:29:03;7.67;;;6.83;;
4355;SDS011;2191;51.482;7.408;2022-08-14T09:31:37;8.10;;;7.50;;
4355;SDS011;2191;51.482;7.408;2022-08-14T09:34:21;9.57;;;7.73;;
4355;SDS011;2191;51.482;7.408;2022-08-14T09:37:10;8.10;;;7.40;;
4355;SDS011;2191;51.482;7.408;2022-08-14T09:39:58;8.23;;;7.20;;
4355;SDS011;2191;51.482;7.408;2022-08-14T09:42:46;9.50;;;7.33;;
4355;SDS011;2191;51.482;7.408;2022-08-14T09:45:32;6.57;;;6.10;;
4355;SDS011;2191;51.482;7.408;2022-08-14T09:48:19;7.27;;;6.67;;
4355;SDS011;2191;51.482;7.408;2022-08-14T09:50:56;8.27;;;7.57;;
4355;SDS011;2191;51.482;7.408;2022-08-14T09:53:34;8.37;;;7.47;;
4355;SDS011;2191;51.482;7.408;2022-08-14T09:56:43;8.83;;;8.03;;
4355;SDS011;2191;51.482;7.408;2022-08-14T09:59:21;7.60;;;6.97;;
4355;SDS011;2191;51.482;7.408;2022-08-14T10:01:53;8.37;;;7.67;;
4355;SDS011;2191;51.482;7.408;2022-08-14T10:04:22;6.30;;;5.80;;
4355;SDS011;2191;51.482;7.408;2022-08-14T10:07:01;8.30;;;7.67;;
4355;SDS011;2191;51.482;7.408;2022-08-14T10:09:29;9.10;;;6.87;;
4355;SDS011;2191;51.482;7.408;2022-08-14T10:12:04;7.20;;;6.50;;
4355;SDS011;2191;51.482;7.408;2022-08-14T10:14:44;7.43;;;6.73;;
4355;SDS011;2191;51.482;7.408;2022-08-14T10:17:20;7.60;;;6.80;;
4355;SDS011;2191;51.482;7.408;2022-08-14T10:19:53;7.50;;;6.80;;
4355;SDS011;2191;51.482;7.408;2022-08-14T10:22:24;7.77;;;7.17;;
4355;SDS011;2191;51.482;7.408;2022-08-14T10:25:15;10.03;;;6.43;;
4355;SDS011;2191;51.482;7.408;2022-08-14T10:27:56;7.27;;;6.63;;
4355;SDS011;2191;51.482;7.408;2022-08-14T10:30:31;7.67;;;7.07;;
4355;SDS011;2191;51.482;7.408;2022-08-14T10:33:02;7.47;;;6.97;;
4355;SDS011;2191;51.482;7.408;2022-08-14T10:35:41;7.67;;;6.97;;
4355;SDS011;2191;51.482;7.408;2022-08-14T10:38:30;7.43;;;6.83;;
4355;SDS011;2191;51.482;7.408;2022-08-14T10:41:10;8.70;;;7.00;;
4355;SDS011;2191;51.482;7.408;2022-08-14T10:43:40;7.70;;;7.00;;
4355;SDS011;2191;51.482;7.408;2022-08-14T10:46:14;7.60;;;7.03;;
4355;SDS011;2191;51.482;7.408;2022-08-14T10:49:04;7.60;;;7.00;;
4355;SDS011;2191;51.482;7.408;2022-08-14T10:51:35;6.40;;;5.97;;
4355;SDS011;2191;51.482;7.408;2022-08-14T10:54:07;7.60;;;7.00;;
4355;SDS011;2191;51.482;7.408;2022-08-14T10:56:57;8.30;;;7.60;;
4355;SDS011;2191;51.482;7.408;2022-08-14T10:59:41;6.57;;;5.93;;
4355;SDS011;2191;51.482;7.408;2022-08-14T11:02:18;7.23;;;6.73;;
4355;SDS011;2191;51.482;7.408;2022-08-14T11:05:11;8.33;;;7.53;;
4355;SDS011;2191;51.482;7.408;2022-08-14T11:07:41;10.10;;;7.33;;
4355;SDS011;2191;51.482;7.408;2022-08-14T11:10:26;7.57;;;6.97;;
4355;SDS011;2191;51.482;7.408;2022-08-14T11:13:08;8.27;;;7.47;;
4355;SDS011;2191;51.482;7.408;2022-08-14T11:15:43;7.50;;;6.90;;
4355;SDS011;2191;51.482;7.408;2022-08-14T11:18:14;8.60;;;7.70;;
4355;SDS011;2191;51.482;7.408;2022-08-14T11:20:55;8.53;;;7.63;;
4355;SDS011;2191;51.482;7.408;2022-08-14T11:23:28;9.10;;;8.23;;
4355;SDS011;2191;51.482;7.408;2022-08-14T11:26:05;8.30;;;7.50;;
4355;SDS011;2191;51.482;7.408;2022-08-14T11:28:36;8.30;;;7.50;;
4355;SDS011;2191;51.482;7.408;2022-08-14T11:31:18;8.47;;;7.77;;
4355;SDS011;2191;51.482;7.408;2022-08-14T11:33:49;7.37;;;6.73;;
4355;SDS011;2191;51.482;7.408;2022-08-14T11:36:22;7.63;;;7.13;;
4355;SDS011;2191;51.482;7.408;2022-08-14T11:39:18;7.40;;;6.77;;
4355;SDS011;2191;51.482;7.408;2022-08-14T11:41:59;7.80;;;7.10;;
4355;SDS011;2191;51.482;7.408;2022-08-14T11:44:48;7.33;;;6.63;;
4355;SDS011;2191;51.482;7.408;2022-08-14T11:47:23;7.23;;;6.73;;
4355;SDS011;2191;51.482;7.408;2022-08-14T11:49:52;8.07;;;7.47;;
4355;SDS011;2191;51.482;7.408;2022-08-14T11:52:19;5.70;;;5.20;;
4355;SDS011;2191;51.482;7.408;2022-08-14T11:54:55;7.17;;;6.57;;
4355;SDS011;2191;51.482;7.408;2022-08-14T11:57:25;6.97;;;6.47;;
4355;SDS011;2191;51.482;7.408;2022-08-14T11:59:59;7.53;;;6.30;;
4355;SDS011;2191;51.482;7.408;2022-08-14T12:02:35;7.60;;;6.90;;
4355;SDS011;2191;51.482;7.408;2022-08-14T12:05:28;8.03;;;7.23;;
4355;SDS011;2191;51.482;7.408;2022-08-14T12:08:01;8.77;;;7.90;;
4355;SDS011;2191;51.482;7.408;2022-08-14T12:10:37;7.63;;;7.13;;
4355;SDS011;2191;51.482;7.408;2022-08-14T12:13:10;6.47;;;5.97;;
4355;SDS011;2191;51.482;7.408;2022-08-14T12:15:43;6.93;;;6.43;;
4355;SDS011;2191;51.482;7.408;2022-08-14T12:18:18;6.27;;;5.77;;
4355;SDS011;2191;51.482;7.408;2022-08-14T12:20:57;7.47;;;6.87;;
4355;SDS011;2191;51.482;7.408;2022-08-14T12:23:44;7.80;;;7.10;;
4355;SDS011;2191;51.482;7.408;2022-08-14T12:26:16;7.67;;;6.97;;
4355;SDS011;2191;51.482;7.408;2022-08-14T12:29:06;7.83;;;7.23;;
4355;SDS011;2191;51.482;7.408;2022-08-14T12:31:35;7.67;;;6.87;;
4355;SDS011;2191;51.482;7.408;2022-08-14T12:34:13;8.10;;;6.90;;
4355;SDS011;2191;51.482;7.408;2022-08-14T12:36:46;7.10;;;6.60;;
4355;SDS011;2191;51.482;7.408;2022-08-14T12:39:18;7.13;;;6.50;;
4355;SDS011;2191;51.482;7.408;2022-08-14T12:41:51;7.07;;;6.47;;
4355;SDS011;2191;51.482;7.408;2022-08-14T12:44:27;7.67;;;6.87;;
4355;SDS011;2191;51.482;7.408;2022-08-14T12:47:02;6.63;;;6.13;;
4355;SDS011;2191;51.482;7.408;2022-08-14T12:49:33;6.80;;;6.30;;
4355;SDS011;2191;51.482;7.408;2022-08-14T12:52:02;6.40;;;6.00;;
4355;SDS011;2191;51.482;7.408;2022-08-14T12:54:43;7.33;;;6.63;;
4355;SDS011;2191;51.482;7.408;2022-08-14T12:57:36;6.03;;;5.63;;
4355;SDS011;2191;51.482;7.408;2022-08-14T13:00:08;5.80;;;5.40;;
4355;SDS011;2191;51.482;7.408;2022-08-14T13:02:50;6.47;;;5.83;;
4355;SDS011;2191;51.482;7.408;2022-08-14T13:05:22;7.83;;;6.30;;
4355;SDS011;2191;51.482;7.408;2022-08-14T13:07:53;6.27;;;5.70;;
4355;SDS011;2191;51.482;7.408;2022-08-14T13:10:24;6.37;;;5.80;;
4355;SDS011;2191;51.482;7.408;2022-08-14T13:13:14;6.50;;;6.00;;
4355;SDS011;2191;51.482;7.408;2022-08-14T13:15:46;5.87;;;5.47;;
4355;SDS011;2191;51.482;7.408;2022-08-14T13:18:22;5.80;;;5.47;;
4355;SDS011;2191;51.482;7.408;2022-08-14T13:20:56;5.73;;;5.33;;
4355;SDS011;2191;51.482;7.408;2022-08-14T13:23:28;6.10;;;5.70;;
4355;SDS011;2191;51.482;7.408;2022-08-14T13:26:01;7.63;;;6.10;;
4355;SDS011;2191;51.482;7.408;2022-08-14T13:28:31;5.70;;;5.30;;
4355;SDS011;2191;51.482;7.408;2022-08-14T13:31:23;5.40;;;4.97;;
4355;SDS011;2191;51.482;7.408;2022-08-14T13:33:55;7.07;;;6.17;;
4355;SDS011;2191;51.482;7.408;2022-08-14T13:36:27;6.40;;;5.90;;
4355;SDS011;2191;51.482;7.408;2022-08-14T13:39:16;7.57;;;7.07;;
4355;SDS011;2191;51.482;7.408;2022-08-14T13:41:47;6.43;;;5.87;;
4355;SDS011;2191;51.482;7.408;2022-08-14T13:44:22;6.83;;;6.23;;
4355;SDS011;2191;51.482;7.408;2022-08-14T13:46:53;6.73;;;6.10;;
4355;SDS011;2191;51.482;7.408;2022-08-14T13:49:24;7.50;;;6.80;;
4355;SDS011;2191;51.482;7.408;2022-08-14T13:51:55;8.33;;;7.63;;
4355;SDS011;2191;51.482;7.408;2022-08-14T13:54:25;9.30;;;8.30;;
4355;SDS011;2191;51.482;7.408;2022-08-14T13:56:58;6.27;;;5.87;;
4355;SDS011;2191;51.482;7.408;2022-08-14T13:59:30;6.50;;;6.00;;
4355;SDS011;2191;51.482;7.408;2022-08-14T14:02:04;6.00;;;5.53;;
4355;SDS011;2191;51.482;7.408;2022-08-14T14:04:34;10.70;;;9.90;;
4355;SDS011;2191;51.482;7.408;2022-08-14T14:07:08;8.63;;;7.83;;
4355;SDS011;2191;51.482;7.408;2022-08-14T14:09:42;5.53;;;5.13;;
4355;SDS011;2191;51.482;7.408;2022-08-14T14:12:18;7.30;;;6.70;;
4355;SDS011;2191;51.482;7.408;2022-08-14T14:15:07;5.90;;;5.50;;
4355;SDS011;2191;51.482;7.408;2022-08-14T14:17:37;5.87;;;5.37;;
4355;SDS011;2191;51.482;7.408;2022-08-14T14:20:13;5.70;;;5.40;;
4355;SDS011;2191;51.482;7.408;2022-08-14T14:23:05;6.73;;;6.23;;
4355;SDS011;2191;51.482;7.408;2022-08-14T14:25:39;6.03;;;5.53;;
4355;SDS011;2191;51.482;7.408;2022-08-14T14:28:15;5.87;;;5.47;;
4355;SDS011;2191;51.482;7.408;2022-08-14T14:30:50;5.90;;;5.50;;
4355;SDS011;2191;51.482;7.408;2022-08-14T14:33:26;8.53;;;5.03;;
4355;SDS011;2191;51.482;7.408;2022-08-14T14:36:16;5.77;;;5.37;;
4355;SDS011;2191;51.482;7.408;2022-08-14T14:38:51;5.67;;;5.33;;
4355;SDS011;2191;51.482;7.408;2022-08-14T14:41:20;5.57;;;5.10;;
4355;SDS011;2191;51.482;7.408;2022-08-14T14:43:51;6.80;;;6.13;;
4355;SDS011;2191;51.482;7.408;2022-08-14T14:46:21;5.47;;;5.17;;
4355;SDS011;2191;51.482;7.408;2022-08-14T14:49:03;5.63;;;5.30;;
4355;SDS011;2191;51.482;7.408;2022-08-14T14:51:37;5.67;;;5.27;;
4355;SDS011;2191;51.482;7.408;2022-08-14T14:54:10;6.17;;;5.67;;
4355;SDS011;2191;51.482;7.408;2022-08-14T14:56:42;5.50;;;5.17;;
4355;SDS011;2191;51.482;7.408;2022-08-14T14:59:17;5.87;;;5.47;;
4355;SDS011;2191;51.482;7.408;2022-08-14T15:01:47;5.37;;;5.07;;
4355;SDS011;2191;51.482;7.408;2022-08-14T15:04:16;5.63;;;5.23;;
4355;SDS011;2191;51.482;7.408;2022-08-14T15:06:46;4.60;;;4.30;;
4355;SDS011;2191;51.482;7.408;2022-08-14T15:09:19;5.33;;;5.00;;
4355;SDS011;2191;51.482;7.408;2022-08-14T15:11:49;7.80;;;5.00;;
4355;SDS011;2191;51.482;7.408;2022-08-14T15:14:18;4.93;;;4.73;;
4355;SDS011;2191;51.482;7.408;2022-08-14T15:17:06;5.47;;;4.97;;
4355;SDS011;2191;51.482;7.408;2022-08-14T15:19:35;5.43;;;5.10;;
4355;SDS011;2191;51.482;7.408;2022-08-14T15:22:04;5.47;;;5.07;;
4355;SDS011;2191;51.482;7.408;2022-08-14T15:24:37;5.17;;;4.67;;
4355;SDS011;2191;51.482;7.408;2022-08-14T15:27:05;5.17;;;4.87;;
4355;SDS011;2191;51.482;7.408;2022-08-14T15:29:33;5.20;;;4.80;;
4355;SDS011;2191;51.482;7.408;2022-08-14T15:32:08;4.80;;;4.50;;
4355;SDS011;2191;51.482;7.408;2022-08-14T15:34:36;6.00;;;5.60;;
4355;SDS011;2191;51.482;7.408;2022-08-14T15:37:18;6.47;;;5.87;;
4355;SDS011;2191;51.482;7.408;2022-08-14T15:39:49;5.80;;;5.40;;
4355;SDS011;2191;51.482;7.408;2022-08-14T15:42:18;4.83;;;4.43;;
4355;SDS011;2191;51.482;7.408;2022-08-14T15:44:49;5.10;;;4.80;;
4355;SDS011;2191;51.482;7.408;2022-08-14T15:47:26;4.50;;;4.10;;
4355;SDS011;2191;51.482;7.408;2022-08-14T15:49:56;5.60;;;5.10;;
4355;SDS011;2191;51.482;7.408;2022-08-14T15:52:27;5.53;;;5.13;;
4355;SDS011;2191;51.482;7.408;2022-08-14T15:55:05;4.60;;;4.20;;
4355;SDS011;2191;51.482;7.408;2022-08-14T15:57:39;5.30;;;4.90;;
4355;SDS011;2191;51.482;7.408;2022-08-14T16:00:28;4.70;;;4.40;;
4355;SDS011;2191;51.482;7.408;2022-08-14T16:03:15;4.83;;;4.57;;
4355;SDS011;2191;51.482;7.408;2022-08-14T16:05:53;4.50;;;4.20;;